Dongola, Illinois
Current Conditions -  °F | °C
As of 11:15 AM on Sunday 21 Dec 2014 (Local Time) from KCIR Reporting Station
Clear Clear  
Wind Chill: 41°   Ceiling: Unl
Heat Index: 43°   Visibility: 7mi
Dew Point: 33°   Wind: 5mph
Humidity: 68%   Direction: 70°ENE
Pressure: 30.2"   Gusts: NA
Location:  37.36°N, 89.17°W
Report Text: KCIR 211715Z AUTO 07004KT 7SM CLR 06/01 A3020 RMK AO2 T00630007
Loading
Personal Weather Stations






























Interactive Weather Map New forecast layout! Learn more

10-Day Weather Forecast

Advertisements
Track Severe Weather on mobile